createdAt,value
2023-05-19T00:00:21.477Z,9.28
2023-05-19T00:02:51.045Z,9.31
2023-05-19T00:05:20.451Z,9.29
2023-05-19T00:07:51.259Z,9.26
2023-05-19T00:10:20.325Z,9.24
2023-05-19T00:12:49.238Z,9.20
2023-05-19T00:15:19.565Z,9.22
2023-05-19T00:17:48.804Z,9.17
2023-05-19T00:20:17.181Z,9.15
2023-05-19T00:22:45.443Z,9.06
2023-05-19T00:25:13.582Z,8.98
2023-05-19T00:27:41.580Z,8.93
2023-05-19T00:30:10.771Z,8.86
2023-05-19T00:32:40.806Z,8.81
2023-05-19T00:35:12.133Z,8.74
2023-05-19T00:37:40.391Z,8.73
2023-05-19T00:40:09.853Z,8.65
2023-05-19T00:42:40.290Z,8.54
2023-05-19T00:45:09.469Z,8.55
2023-05-19T00:47:37.567Z,8.57
2023-05-19T00:50:07.827Z,8.52
2023-05-19T00:52:36.273Z,8.44
2023-05-19T00:55:08.116Z,8.42
2023-05-19T00:59:02.674Z,8.41
2023-05-19T01:01:32.427Z,8.43
2023-05-19T01:04:02.228Z,8.48
2023-05-19T01:06:30.724Z,8.47
2023-05-19T01:08:59.677Z,8.48
2023-05-19T01:11:51.119Z,8.45
2023-05-19T01:14:22.305Z,8.41
2023-05-19T01:17:16.327Z,8.46
2023-05-19T01:19:52.077Z,8.43
2023-05-19T01:22:33.464Z,8.43
2023-05-19T01:25:34.677Z,8.45
2023-05-19T01:28:49.495Z,8.43
2023-05-19T01:31:23.805Z,8.36
2023-05-19T01:33:55.044Z,8.33
2023-05-19T01:36:26.570Z,8.31
2023-05-19T01:38:58.288Z,8.28
2023-05-19T01:41:28.504Z,8.28
2023-05-19T01:43:58.457Z,8.24
2023-05-19T01:46:28.563Z,8.26
2023-05-19T01:48:57.209Z,8.22
2023-05-19T01:51:25.455Z,8.20
2023-05-19T01:53:56.397Z,8.20
2023-05-19T01:56:33.588Z,8.17
2023-05-19T01:59:10.416Z,8.16
2023-05-19T02:01:52.922Z,8.17
2023-05-19T02:04:39.130Z,8.12
2023-05-19T02:07:23.806Z,8.07
2023-05-19T02:09:57.065Z,8.01
2023-05-19T02:12:29.867Z,7.99
2023-05-19T02:15:05.956Z,7.96
2023-05-19T02:17:40.352Z,7.79
2023-05-19T02:20:12.148Z,7.78
2023-05-19T02:22:41.127Z,7.74
2023-05-19T02:25:10.632Z,7.77
2023-05-19T02:27:40.471Z,7.72
2023-05-19T02:30:10.257Z,7.68
2023-05-19T02:32:40.158Z,7.67
2023-05-19T02:35:09.100Z,7.66
2023-05-19T02:37:37.262Z,7.68
2023-05-19T02:40:07.125Z,7.65
2023-05-19T02:42:37.743Z,7.64
2023-05-19T02:45:07.310Z,7.55
2023-05-19T02:47:38.984Z,7.54
2023-05-19T02:50:09.220Z,7.51
2023-05-19T02:52:37.350Z,7.49
2023-05-19T02:55:06.649Z,7.50
2023-05-19T02:57:36.416Z,7.47
2023-05-19T03:00:08.485Z,7.45
2023-05-19T03:02:37.563Z,7.44
2023-05-19T03:05:08.789Z,7.42
2023-05-19T03:07:39.662Z,7.41
2023-05-19T03:10:09.272Z,7.42
2023-05-19T03:12:37.648Z,7.39
2023-05-19T03:15:07.085Z,7.38
2023-05-19T03:17:36.502Z,7.34
2023-05-19T03:20:06.388Z,7.29
2023-05-19T03:22:38.109Z,7.29
2023-05-19T03:25:09.398Z,7.29
2023-05-19T03:27:37.513Z,7.27
2023-05-19T03:30:09.795Z,7.19
2023-05-19T03:32:52.050Z,7.25
2023-05-19T03:35:22.881Z,7.21
2023-05-19T03:37:55.145Z,7.23
2023-05-19T03:40:23.671Z,7.22
2023-05-19T03:42:56.815Z,7.19
2023-05-19T03:45:25.323Z,7.17
2023-05-19T03:47:54.333Z,7.22
2023-05-19T03:50:45.111Z,7.23
2023-05-19T03:53:19.385Z,7.23
2023-05-19T03:55:48.712Z,7.28
2023-05-19T03:58:17.223Z,7.30
2023-05-19T04:00:47.607Z,7.31
2023-05-19T04:03:15.800Z,7.35
2023-05-19T04:05:46.775Z,7.42
2023-05-19T04:08:16.406Z,7.44
2023-05-19T04:10:46.010Z,7.48
2023-05-19T04:13:16.148Z,7.49
2023-05-19T04:15:44.537Z,7.55
2023-05-19T04:18:12.732Z,7.53
2023-05-19T04:20:41.744Z,7.62
2023-05-19T04:23:10.647Z,7.65
2023-05-19T04:25:40.834Z,7.72
2023-05-19T04:28:13.846Z,7.71
2023-05-19T04:30:42.582Z,7.76
2023-05-19T04:33:13.123Z,7.79
2023-05-19T04:35:44.666Z,7.81
2023-05-19T04:38:18.758Z,7.84
2023-05-19T04:40:50.496Z,7.89
2023-05-19T04:43:22.306Z,7.95
2023-05-19T04:45:52.040Z,7.97
2023-05-19T04:48:23.151Z,8.08
2023-05-19T04:50:53.370Z,8.16
2023-05-19T04:53:22.675Z,8.24
2023-05-19T04:55:53.180Z,8.28
2023-05-19T04:58:25.895Z,8.41
2023-05-19T05:00:55.893Z,8.52
2023-05-19T05:03:24.367Z,8.67
2023-05-19T05:05:55.017Z,8.91
2023-05-19T05:08:23.879Z,9.17
2023-05-19T05:10:56.423Z,9.41
2023-05-19T05:13:27.410Z,9.78
2023-05-19T05:15:56.849Z,10.03
2023-05-19T05:18:25.619Z,10.41
2023-05-19T05:20:57.124Z,10.48
2023-05-19T05:23:26.790Z,10.34
2023-05-19T05:25:55.475Z,10.34
2023-05-19T05:28:23.828Z,10.46
2023-05-19T05:30:56.303Z,10.38
2023-05-19T05:33:25.309Z,10.63
2023-05-19T05:35:53.793Z,10.51
2023-05-19T05:38:21.851Z,10.34
2023-05-19T05:40:50.126Z,10.46
2023-05-19T05:43:19.006Z,10.21
2023-05-19T05:45:54.938Z,10.25
2023-05-19T05:48:23.682Z,10.31
2023-05-19T05:50:53.368Z,10.47
2023-05-19T05:53:27.247Z,10.68
2023-05-19T05:55:59.538Z,10.84
2023-05-19T06:00:07.489Z,11.16
2023-05-19T06:02:44.695Z,11.43
2023-05-19T06:05:16.799Z,11.62
2023-05-19T06:07:48.889Z,12.34
2023-05-19T06:10:23.364Z,12.70
2023-05-19T06:12:51.739Z,12.59
2023-05-19T06:15:22.257Z,12.62
2023-05-19T06:18:08.014Z,12.44
2023-05-19T06:20:36.381Z,12.75
2023-05-19T06:23:04.559Z,12.33
2023-05-19T06:25:33.529Z,11.95
2023-05-19T06:28:02.163Z,11.94
2023-05-19T06:30:31.918Z,12.16
2023-05-19T06:33:21.644Z,12.40
2023-05-19T06:35:50.530Z,12.37
2023-05-19T06:38:19.261Z,12.36
2023-05-19T06:40:47.613Z,12.53
2023-05-19T06:43:15.824Z,13.39
2023-05-19T06:45:59.220Z,14.16
2023-05-19T06:48:27.675Z,14.62
2023-05-19T06:50:56.061Z,15.56
2023-05-19T06:53:25.536Z,16.19
2023-05-19T06:55:59.960Z,16.78
2023-05-19T06:58:32.122Z,17.29
2023-05-19T07:01:03.725Z,17.71
2023-05-19T07:03:37.376Z,18.53
2023-05-19T07:06:08.093Z,17.88
2023-05-19T07:08:38.332Z,19.01
2023-05-19T07:11:12.390Z,18.56
2023-05-19T07:13:41.858Z,18.35
2023-05-19T07:16:12.159Z,18.98
2023-05-19T07:18:40.393Z,19.32
2023-05-19T07:21:11.791Z,18.36
2023-05-19T07:23:40.136Z,17.99
2023-05-19T07:26:08.368Z,18.65
2023-05-19T07:28:38.160Z,19.91
2023-05-19T07:31:07.344Z,19.88
2023-05-19T07:33:39.198Z,20.36
2023-05-19T07:36:07.476Z,20.25
2023-05-19T07:38:35.921Z,19.97
2023-05-19T07:41:04.311Z,19.90
2023-05-19T07:43:32.630Z,20.50
2023-05-19T07:46:01.004Z,21.57
2023-05-19T07:48:29.628Z,20.88
2023-05-19T07:50:59.193Z,20.84
2023-05-19T07:53:28.074Z,20.51
2023-05-19T07:55:58.393Z,20.74
2023-05-19T07:58:27.802Z,21.12
2023-05-19T08:00:59.521Z,21.49
2023-05-19T08:03:28.172Z,21.74
2023-05-19T08:05:56.511Z,22.28
2023-05-19T08:08:26.936Z,22.42
2023-05-19T08:10:57.498Z,22.97
2023-05-19T08:13:25.717Z,22.31
2023-05-19T08:15:54.939Z,22.77
2023-05-19T08:18:23.429Z,22.37
2023-05-19T08:20:51.645Z,22.28
2023-05-19T08:23:19.838Z,22.63
2023-05-19T08:25:52.415Z,23.14
2023-05-19T08:28:20.652Z,24.54
2023-05-19T08:30:48.808Z,23.38
2023-05-19T08:33:17.679Z,22.68
2023-05-19T08:35:48.920Z,22.80
2023-05-19T08:38:19.687Z,21.54
2023-05-19T08:40:51.641Z,21.52
2023-05-19T08:43:25.326Z,21.90
2023-05-19T08:45:54.415Z,22.77
2023-05-19T08:48:23.721Z,23.63
2023-05-19T08:51:02.574Z,23.67
2023-05-19T08:53:37.963Z,24.15
2023-05-19T08:56:12.938Z,23.93
2023-05-19T08:58:43.833Z,23.44
2023-05-19T09:01:14.701Z,23.38
2023-05-19T09:03:44.305Z,23.10
2023-05-19T09:06:13.602Z,22.66
2023-05-19T09:08:42.777Z,23.29
2023-05-19T09:11:12.989Z,24.20
2023-05-19T09:13:41.350Z,23.32
2023-05-19T09:16:09.638Z,23.78
2023-05-19T09:18:41.320Z,24.84
2023-05-19T09:21:11.228Z,24.16
2023-05-19T09:23:39.528Z,24.39
2023-05-19T09:26:10.782Z,24.15
2023-05-19T09:28:43.091Z,23.98
2023-05-19T09:31:12.173Z,23.72
2023-05-19T09:33:45.202Z,23.84
2023-05-19T09:36:15.125Z,24.15
2023-05-19T09:38:43.239Z,24.91
2023-05-19T09:41:11.811Z,24.76
2023-05-19T09:43:40.165Z,25.13
2023-05-19T09:46:13.811Z,25.13
2023-05-19T09:48:43.943Z,24.42
2023-05-19T09:51:12.993Z,23.46
2023-05-19T09:53:44.898Z,22.92
2023-05-19T09:56:15.466Z,23.06
2023-05-19T09:58:44.054Z,24.10
2023-05-19T10:01:13.807Z,24.78
2023-05-19T10:03:43.741Z,22.85
2023-05-19T10:06:12.616Z,23.21
2023-05-19T10:08:43.781Z,22.67
2023-05-19T10:11:13.259Z,22.98
2023-05-19T10:13:46.540Z,23.28
2023-05-19T10:16:17.504Z,22.63
2023-05-19T10:18:51.133Z,22.63
2023-05-19T10:21:19.652Z,23.19
2023-05-19T10:23:47.908Z,23.97
2023-05-19T10:26:17.077Z,25.04
2023-05-19T10:28:46.631Z,24.97
2023-05-19T10:31:23.285Z,24.89
2023-05-19T10:34:06.563Z,24.36
2023-05-19T10:36:45.635Z,23.30
2023-05-19T10:39:18.988Z,23.85
2023-05-19T10:41:59.714Z,23.73
2023-05-19T10:44:40.936Z,23.63
2023-05-19T10:47:12.606Z,23.51
2023-05-19T10:49:41.030Z,22.83
2023-05-19T10:52:21.581Z,23.32
2023-05-19T10:54:50.011Z,24.27
2023-05-19T10:57:26.673Z,24.05
2023-05-19T11:01:11.062Z,23.38
2023-05-19T11:03:50.012Z,24.13
2023-05-19T11:06:19.765Z,24.00
2023-05-19T11:08:49.140Z,24.62
2023-05-19T11:11:18.051Z,24.28
2023-05-19T11:13:49.020Z,24.76
2023-05-19T11:16:27.575Z,24.64
2023-05-19T11:18:56.468Z,24.70
2023-05-19T11:21:24.986Z,26.33
2023-05-19T11:23:53.963Z,24.23
2023-05-19T11:26:47.592Z,24.39
2023-05-19T11:29:18.360Z,23.82
2023-05-19T11:31:49.788Z,24.98
2023-05-19T11:34:21.988Z,24.75
2023-05-19T11:36:53.943Z,23.77
2023-05-19T11:39:26.896Z,23.43
2023-05-19T11:41:56.742Z,22.73
2023-05-19T11:44:25.107Z,23.28
2023-05-19T11:46:55.693Z,22.63
2023-05-19T11:49:28.572Z,22.26
2023-05-19T11:51:57.025Z,22.40
2023-05-19T11:54:31.543Z,22.22
2023-05-19T11:57:02.854Z,22.45
2023-05-19T11:59:33.464Z,23.06
2023-05-19T12:02:19.111Z,23.62
2023-05-19T12:04:50.394Z,24.08
2023-05-19T12:07:20.580Z,23.97
2023-05-19T12:09:49.263Z,23.19
2023-05-19T12:12:18.786Z,22.94
2023-05-19T12:14:51.015Z,23.11
2023-05-19T12:17:23.902Z,23.15
2023-05-19T12:19:52.867Z,23.94
2023-05-19T12:22:21.458Z,24.42
2023-05-19T12:24:52.906Z,24.05
2023-05-19T12:27:26.299Z,22.98
2023-05-19T12:29:57.243Z,22.47
2023-05-19T12:32:27.845Z,22.52
2023-05-19T12:34:58.068Z,22.25
2023-05-19T12:37:30.067Z,22.11
2023-05-19T12:39:58.650Z,22.20
2023-05-19T12:42:31.496Z,22.17
2023-05-19T12:45:02.953Z,21.97
2023-05-19T12:47:36.395Z,21.70
2023-05-19T12:50:06.478Z,21.72
2023-05-19T12:52:43.055Z,21.82
2023-05-19T12:55:12.451Z,21.93
2023-05-19T12:57:42.125Z,21.60
2023-05-19T13:00:17.690Z,21.01
2023-05-19T13:03:01.966Z,21.08
2023-05-19T13:05:33.849Z,20.76
2023-05-19T13:08:07.680Z,21.16
2023-05-19T13:10:36.963Z,22.13
2023-05-19T13:13:05.946Z,22.47
2023-05-19T13:15:35.716Z,22.63
2023-05-19T13:18:06.841Z,22.58
2023-05-19T13:20:36.345Z,22.28
2023-05-19T13:23:07.268Z,21.78
2023-05-19T13:25:35.892Z,21.72
2023-05-19T13:28:05.865Z,21.46
2023-05-19T13:30:38.031Z,21.55
2023-05-19T13:33:08.125Z,21.75
2023-05-19T13:35:38.270Z,21.82
2023-05-19T13:38:07.860Z,21.80
2023-05-19T13:40:36.857Z,21.39
2023-05-19T13:43:06.206Z,21.00
2023-05-19T13:45:34.653Z,20.69
2023-05-19T13:48:03.365Z,20.33
2023-05-19T13:50:34.373Z,20.39
2023-05-19T13:53:03.597Z,20.81
2023-05-19T13:55:31.703Z,20.74
2023-05-19T13:58:00.056Z,20.57
2023-05-19T14:00:28.493Z,20.14
2023-05-19T14:02:56.715Z,19.55
2023-05-19T14:05:25.127Z,19.90
2023-05-19T14:07:55.208Z,20.35
2023-05-19T14:10:23.798Z,20.40
2023-05-19T14:15:27.131Z,20.39
2023-05-19T14:17:55.335Z,20.25
2023-05-19T14:20:23.484Z,20.54
2023-05-19T14:22:51.761Z,20.20
2023-05-19T14:25:23.834Z,20.55
2023-05-19T14:27:52.083Z,20.31
2023-05-19T14:30:20.293Z,20.49
2023-05-19T14:32:48.593Z,20.38
2023-05-19T14:35:16.884Z,19.94
2023-05-19T14:37:44.961Z,19.66
2023-05-19T14:40:14.245Z,19.68
2023-05-19T14:42:45.878Z,19.56
2023-05-19T14:45:14.223Z,19.28
2023-05-19T14:47:42.513Z,19.27
2023-05-19T14:50:12.983Z,19.38
2023-05-19T14:52:41.236Z,19.28
2023-05-19T14:55:12.199Z,19.48
2023-05-19T14:57:40.514Z,19.46
2023-05-19T15:00:11.316Z,19.73
2023-05-19T15:02:39.661Z,19.63
2023-05-19T15:05:08.290Z,19.48
2023-05-19T15:07:36.955Z,19.58
2023-05-19T15:10:05.940Z,19.58
2023-05-19T15:12:34.039Z,19.73
2023-05-19T15:15:02.372Z,19.62
2023-05-19T15:17:35.077Z,19.62
2023-05-19T15:20:03.333Z,19.57
2023-05-19T15:22:34.187Z,19.45
2023-05-19T15:25:02.279Z,19.73
2023-05-19T15:27:30.492Z,19.94
2023-05-19T15:29:59.451Z,19.96
2023-05-19T15:32:27.652Z,20.18
2023-05-19T15:34:59.657Z,20.25
2023-05-19T15:37:27.785Z,20.14
2023-05-19T15:39:56.080Z,20.16
2023-05-19T15:42:24.398Z,20.47
2023-05-19T15:44:55.175Z,19.86
2023-05-19T15:47:26.464Z,20.24
2023-05-19T15:49:55.392Z,20.29
2023-05-19T15:52:25.014Z,19.86
2023-05-19T15:54:59.148Z,19.78
2023-05-19T15:57:29.787Z,19.38
2023-05-19T16:02:05.895Z,19.33
2023-05-19T16:04:34.428Z,19.24
2023-05-19T16:07:02.562Z,18.95
2023-05-19T16:09:30.858Z,19.12
2023-05-19T16:11:59.028Z,19.25
2023-05-19T16:14:31.112Z,19.24
2023-05-19T16:16:59.905Z,19.11
2023-05-19T16:19:29.503Z,19.20
2023-05-19T16:21:57.936Z,19.60
2023-05-19T16:24:26.187Z,19.73
2023-05-19T16:26:54.465Z,19.83
2023-05-19T16:29:25.168Z,19.88
2023-05-19T16:31:53.332Z,20.06
2023-05-19T16:34:21.466Z,20.08
2023-05-19T16:36:51.082Z,19.89
2023-05-19T16:39:21.778Z,19.80
2023-05-19T16:41:53.842Z,19.65
2023-05-19T16:44:24.670Z,19.74
2023-05-19T16:46:53.353Z,19.60
2023-05-19T16:49:21.489Z,19.51
2023-05-19T16:51:53.044Z,19.60
2023-05-19T16:54:22.181Z,19.64
2023-05-19T16:56:51.215Z,19.47
2023-05-19T16:59:21.610Z,19.37
2023-05-19T17:01:50.192Z,19.32
2023-05-19T17:04:18.413Z,19.22
2023-05-19T17:06:47.101Z,19.27
2023-05-19T17:09:17.082Z,19.34
2023-05-19T17:11:45.315Z,19.39
2023-05-19T17:14:16.276Z,19.33
2023-05-19T17:16:44.506Z,19.17
2023-05-19T17:19:13.579Z,18.96
2023-05-19T17:21:44.386Z,18.91
2023-05-19T17:24:12.471Z,18.84
2023-05-19T17:26:42.065Z,18.72
2023-05-19T17:29:10.615Z,18.75
2023-05-19T17:31:38.803Z,18.74
2023-05-19T17:34:06.966Z,18.62
2023-05-19T17:36:35.269Z,18.60
2023-05-19T17:39:03.868Z,18.58
2023-05-19T17:41:32.052Z,18.65
2023-05-19T17:44:02.093Z,18.62
2023-05-19T17:46:34.645Z,18.61
2023-05-19T17:49:02.925Z,18.57
2023-05-19T17:51:31.841Z,18.45
2023-05-19T17:54:00.615Z,18.33
2023-05-19T17:56:34.389Z,18.38
2023-05-19T17:59:04.601Z,18.35
2023-05-19T18:01:36.299Z,18.24
2023-05-19T18:04:05.202Z,18.28
2023-05-19T18:06:33.734Z,18.20
2023-05-19T18:09:08.082Z,18.18
2023-05-19T18:11:36.496Z,18.17
2023-05-19T18:14:08.717Z,18.15
2023-05-19T18:16:36.916Z,18.07
2023-05-19T18:19:05.121Z,18.04
2023-05-19T18:21:33.852Z,18.01
2023-05-19T18:24:05.457Z,17.94
2023-05-19T18:26:34.160Z,17.90
2023-05-19T18:29:05.102Z,17.86
2023-05-19T18:31:37.054Z,17.84
2023-05-19T18:34:05.420Z,17.77
2023-05-19T18:36:34.966Z,17.69
2023-05-19T18:39:04.704Z,17.67
2023-05-19T18:41:33.264Z,17.58
2023-05-19T18:44:01.905Z,17.52
2023-05-19T18:46:30.301Z,17.50
2023-05-19T18:48:59.786Z,17.47
2023-05-19T18:51:27.907Z,17.42
2023-05-19T18:53:56.235Z,17.37
2023-05-19T18:56:26.141Z,17.34
2023-05-19T18:58:56.852Z,17.28
2023-05-19T19:01:27.598Z,17.25
2023-05-19T19:03:59.461Z,17.22
2023-05-19T19:06:27.617Z,17.15
2023-05-19T19:08:55.972Z,17.10
2023-05-19T19:11:24.285Z,17.08
2023-05-19T19:13:55.397Z,17.00
2023-05-19T19:16:26.420Z,16.95
2023-05-19T19:18:54.843Z,16.97
2023-05-19T19:21:24.485Z,16.90
2023-05-19T19:23:53.853Z,16.90
2023-05-19T19:26:25.093Z,16.82
2023-05-19T19:28:53.701Z,16.83
2023-05-19T19:31:21.975Z,16.84
2023-05-19T19:33:50.462Z,16.81
2023-05-19T19:36:18.740Z,16.77
2023-05-19T19:38:48.737Z,16.72
2023-05-19T19:41:20.125Z,16.69
2023-05-19T19:43:48.420Z,16.67
2023-05-19T19:46:22.221Z,16.66
2023-05-19T19:48:57.820Z,16.58
2023-05-19T19:51:26.465Z,16.57
2023-05-19T19:53:56.181Z,16.54
2023-05-19T19:56:27.795Z,16.50
2023-05-19T19:58:59.205Z,16.50
2023-05-19T20:01:30.356Z,16.47
2023-05-19T20:03:59.042Z,16.46
2023-05-19T20:06:27.330Z,16.41
2023-05-19T20:08:57.929Z,16.37
2023-05-19T20:11:26.812Z,16.35
2023-05-19T20:13:55.312Z,16.29
2023-05-19T20:16:24.216Z,16.27
2023-05-19T20:18:53.113Z,16.25
2023-05-19T20:21:21.304Z,16.22
2023-05-19T20:23:52.116Z,16.18
2023-05-19T20:26:22.836Z,16.15
2023-05-19T20:28:50.974Z,16.13
2023-05-19T20:31:19.416Z,16.08
2023-05-19T20:33:47.687Z,16.03
2023-05-19T20:36:15.922Z,15.99
2023-05-19T20:38:44.795Z,15.97
2023-05-19T20:41:13.546Z,15.96
2023-05-19T20:43:45.405Z,15.96
2023-05-19T20:46:14.371Z,15.89
2023-05-19T20:48:42.603Z,15.87
2023-05-19T20:51:11.081Z,15.82
2023-05-19T20:53:39.193Z,15.78
2023-05-19T20:56:10.745Z,15.75
2023-05-19T20:58:41.595Z,15.73
2023-05-19T21:03:06.409Z,15.68
2023-05-19T21:05:35.189Z,15.64
2023-05-19T21:08:03.745Z,15.63
2023-05-19T21:10:32.485Z,15.65
2023-05-19T21:13:03.574Z,15.62
2023-05-19T21:15:32.224Z,15.60
2023-05-19T21:18:00.485Z,15.55
2023-05-19T21:20:30.846Z,15.57
2023-05-19T21:23:01.832Z,15.52
2023-05-19T21:25:31.008Z,15.51
2023-05-19T21:28:18.561Z,15.50
2023-05-19T21:30:49.494Z,15.50
2023-05-19T21:33:18.024Z,15.45
2023-05-19T21:35:50.111Z,15.43
2023-05-19T21:40:51.021Z,15.38
2023-05-19T21:43:20.045Z,15.36
2023-05-19T21:45:48.377Z,15.32
2023-05-19T21:48:17.085Z,15.27
2023-05-19T21:50:45.537Z,15.27
2023-05-19T21:53:15.063Z,15.22
2023-05-19T21:55:45.353Z,15.16
2023-05-19T21:58:13.668Z,15.17
2023-05-19T22:00:43.016Z,15.20
2023-05-19T22:03:12.414Z,15.14
2023-05-19T22:05:41.447Z,15.12
2023-05-19T22:08:11.255Z,15.07
2023-05-19T22:10:43.376Z,15.06
2023-05-19T22:13:12.023Z,15.03
2023-05-19T22:15:40.430Z,15.00
2023-05-19T22:18:09.196Z,14.96
2023-05-19T22:20:38.119Z,14.92
2023-05-19T22:23:06.410Z,14.88
2023-05-19T22:25:37.209Z,14.87
2023-05-19T22:28:08.391Z,14.83
2023-05-19T22:30:41.095Z,14.79
2023-05-19T22:33:12.677Z,14.78
2023-05-19T22:35:40.877Z,14.74
2023-05-19T22:38:10.689Z,14.69
2023-05-19T22:40:40.151Z,14.66
2023-05-19T22:43:09.690Z,14.64
2023-05-19T22:45:38.499Z,14.59
2023-05-19T22:48:10.340Z,14.54
2023-05-19T22:50:40.817Z,14.49
2023-05-19T22:53:09.673Z,14.48
2023-05-19T22:55:38.654Z,14.40
2023-05-19T22:58:07.690Z,14.43
2023-05-19T23:00:40.074Z,14.35
2023-05-19T23:03:08.278Z,14.37
2023-05-19T23:05:36.523Z,14.38
2023-05-19T23:08:05.732Z,14.34
2023-05-19T23:10:34.094Z,14.32
2023-05-19T23:13:05.214Z,14.31
2023-05-19T23:15:33.664Z,14.30
2023-05-19T23:18:07.578Z,14.27
2023-05-19T23:20:36.420Z,14.22
2023-05-19T23:23:05.363Z,14.17
2023-05-19T23:25:33.785Z,14.15
2023-05-19T23:28:02.518Z,14.13
2023-05-19T23:30:32.239Z,14.08
2023-05-19T23:33:03.589Z,14.07
2023-05-19T23:35:34.019Z,14.05
2023-05-19T23:38:02.394Z,13.99
2023-05-19T23:40:30.636Z,13.96
2023-05-19T23:42:59.075Z,13.94
2023-05-19T23:45:27.235Z,13.90
2023-05-19T23:47:55.807Z,13.85
2023-05-19T23:50:24.617Z,13.81
2023-05-19T23:52:54.193Z,13.79
2023-05-19T23:55:23.436Z,13.75
2023-05-19T23:57:54.681Z,13.69
